Time;durP1;ratioP1;P1;durP2;ratioP2;P2;SDS_P1;SDS_P2;PMS_P1;PMS_P2;Temp;Humidity;BMP_temperature;BMP_pressure;BME280_temperature;BME280_humidity;BME280_pressure;Samples;Min_cycle;Max_cycle;Signal;HPM_P1;HPM_P2
2022/05/05 00:00:31;;;;;;;17.67;8.40;;;;;;;10.58;61.91;101917.72;5007863;28;20049;-84
2022/05/05 00:02:56;;;;;;;13.10;7.57;;;;;;;10.57;62.10;101921.28;5018795;28;20235;-84
2022/05/05 00:05:22;;;;;;;13.15;7.75;;;;;;;10.58;62.15;101923.03;5000758;28;20034;-84
2022/05/05 00:07:47;;;;;;;17.65;7.47;;;;;;;10.55;62.29;101922.16;5031053;28;20029;-84
2022/05/05 00:15:41;;;;;;;15.93;7.57;;;;;;;10.54;62.02;101917.75;5015778;28;20052;-84
2022/05/05 00:18:07;;;;;;;12.80;7.93;;;;;;;10.54;61.69;101919.53;5021360;28;20072;-84
2022/05/05 00:20:32;;;;;;;14.98;7.97;;;;;;;10.57;62.26;101916.84;5036267;28;20483;-84
2022/05/05 00:22:58;;;;;;;13.45;7.43;;;;;;;10.55;62.48;101911.56;5013912;28;20030;-84
2022/05/05 00:25:23;;;;;;;15.13;7.70;;;;;;;10.56;61.73;101915.09;5016054;28;20025;-84
2022/05/05 00:27:49;;;;;;;12.77;7.40;;;;;;;10.54;61.97;101911.56;4997897;28;20040;-84
2022/05/05 00:30:14;;;;;;;16.35;7.40;;;;;;;10.52;61.91;101919.53;5015642;28;20171;-84
2022/05/05 00:32:40;;;;;;;11.30;7.47;;;;;;;10.51;61.85;101922.19;5035492;28;20033;-84
2022/05/05 00:35:05;;;;;;;13.15;8.07;;;;;;;10.47;62.25;101913.38;5003299;28;20025;-84
2022/05/05 00:37:31;;;;;;;10.93;7.38;;;;;;;10.47;61.83;101912.50;5001609;28;20044;-84
2022/05/05 00:39:57;;;;;;;15.20;7.72;;;;;;;10.45;61.74;101914.25;5034886;28;20075;-84
2022/05/05 00:42:22;;;;;;;12.85;7.60;;;;;;;10.43;62.09;101910.72;5018587;28;20041;-84
2022/05/05 00:44:48;;;;;;;11.52;7.72;;;;;;;10.38;61.92;101907.22;5032414;28;20052;-84
2022/05/05 00:47:19;;;;;;;15.10;7.07;;;;;;;10.31;61.90;101911.66;5019202;28;20033;-84
2022/05/05 00:49:49;;;;;;;15.15;8.02;;;;;;;10.24;62.22;101916.06;5016579;28;20033;-84
2022/05/05 00:52:14;;;;;;;13.05;7.50;;;;;;;10.15;63.03;101908.16;5002852;28;20052;-84
2022/05/05 00:54:40;;;;;;;13.15;7.65;;;;;;;10.03;64.13;101906.41;5017999;28;20037;-84
2022/05/05 00:57:07;;;;;;;17.33;7.70;;;;;;;9.93;63.40;101902.03;5015713;28;20017;-84
2022/05/05 00:59:33;;;;;;;17.10;8.45;;;;;;;9.90;64.85;101900.28;5037289;28;20028;-84
2022/05/05 01:01:58;;;;;;;14.02;8.85;;;;;;;9.84;66.39;101905.59;5050020;28;20036;-84
2022/05/05 01:04:25;;;;;;;16.52;9.07;;;;;;;9.77;66.75;101911.78;5050057;28;20108;-84
2022/05/05 01:06:50;;;;;;;14.82;8.95;;;;;;;9.75;66.16;101908.25;5035877;28;20501;-84
2022/05/05 01:09:16;;;;;;;15.90;8.75;;;;;;;9.77;66.42;101908.25;5024048;28;20036;-84
2022/05/05 01:11:42;;;;;;;15.05;8.48;;;;;;;9.78;66.62;101915.28;5052194;28;20025;-84
2022/05/05 01:14:08;;;;;;;16.48;8.52;;;;;;;9.73;64.95;101910.00;5031949;28;20140;-84
2022/05/05 01:16:34;;;;;;;13.68;9.35;;;;;;;9.67;67.13;101916.19;5021126;28;20033;-84
2022/05/05 01:19:00;;;;;;;15.27;8.30;;;;;;;9.59;65.74;101914.41;5003565;28;20127;-84
2022/05/05 01:21:25;;;;;;;15.35;8.55;;;;;;;9.48;66.94;101911.78;5018372;28;20048;-84
2022/05/05 01:23:51;;;;;;;15.05;8.57;;;;;;;9.40;66.79;101903.88;5021124;28;20108;-84
2022/05/05 01:29:01;;;;;;;17.98;9.82;;;;;;;9.28;69.46;101901.22;5034063;28;20033;-84
2022/05/05 01:31:27;;;;;;;16.08;8.95;;;;;;;9.27;68.24;101904.72;5048545;28;20110;-84
2022/05/05 01:33:52;;;;;;;15.80;9.07;;;;;;;9.29;67.66;101907.38;5018154;28;21398;-84
2022/05/05 01:36:18;;;;;;;19.27;8.93;;;;;;;9.27;66.72;101904.72;5015523;28;20025;-84
2022/05/05 01:38:44;;;;;;;15.45;8.65;;;;;;;9.22;67.14;101914.41;4999270;28;20048;-83
2022/05/05 01:41:14;;;;;;;15.05;9.50;;;;;;;9.20;68.48;101914.44;5031901;28;20054;-84
2022/05/05 01:43:42;;;;;;;18.23;9.50;;;;;;;9.14;69.15;101902.97;5037502;28;20434;-84
2022/05/05 01:46:08;;;;;;;16.90;9.18;;;;;;;9.12;68.41;101902.06;5051127;28;20503;-83
2022/05/05 01:48:34;;;;;;;16.42;8.35;;;;;;;9.10;68.20;101911.75;5047725;28;20052;-84
2022/05/05 01:51:00;;;;;;;14.98;9.00;;;;;;;9.03;68.84;101909.13;5019065;28;20033;-84
2022/05/05 01:53:26;;;;;;;16.63;8.93;;;;;;;8.95;68.73;101912.59;5035647;28;20041;-84
2022/05/05 01:55:52;;;;;;;16.20;9.32;;;;;;;8.89;67.81;101902.91;5034450;28;20449;-84
2022/05/05 01:58:19;;;;;;;14.98;8.52;;;;;;;8.88;68.08;101910.84;5021543;28;20040;-84
2022/05/05 02:00:44;;;;;;;18.17;9.25;;;;;;;8.88;67.93;101916.13;5018592;28;20555;-84
2022/05/05 02:03:13;;;;;;;18.10;9.48;;;;;;;8.84;68.05;101912.59;5035097;28;20119;-84
2022/05/05 02:05:43;;;;;;;16.95;9.55;;;;;;;8.75;69.58;101913.47;5042549;28;20036;-83
2022/05/05 02:08:10;;;;;;;15.85;9.45;;;;;;;8.69;69.91;101918.72;5024561;28;20083;-83
2022/05/05 02:10:36;;;;;;;13.85;8.45;;;;;;;8.63;69.60;101912.53;5038148;28;20116;-84
2022/05/05 02:13:02;;;;;;;14.50;9.02;;;;;;;8.56;70.89;101917.81;5042945;28;20032;-84
2022/05/05 02:15:30;;;;;;;15.88;8.68;;;;;;;8.50;69.89;101920.41;5051263;28;20037;-84
2022/05/05 02:17:56;;;;;;;13.68;8.60;;;;;;;8.46;68.86;101921.28;5042934;28;20021;-84
2022/05/05 02:20:21;;;;;;;17.98;9.20;;;;;;;8.48;71.50;101924.81;5037444;28;20048;-84
2022/05/05 02:22:47;;;;;;;14.10;8.70;;;;;;;8.50;71.13;101922.16;5071283;28;20040;-84
2022/05/05 02:25:13;;;;;;;12.63;8.55;;;;;;;8.53;70.34;101925.72;5035151;28;20045;-84
2022/05/05 02:27:49;;;;;;;13.73;8.68;;;;;;;8.58;71.95;101925.72;5037406;28;20032;-84
2022/05/05 02:30:19;;;;;;;14.80;8.88;;;;;;;8.55;72.97;101923.94;5020887;28;20029;-84
2022/05/05 02:32:45;;;;;;;15.43;8.57;;;;;;;8.46;71.34;101921.28;5034633;28;20059;-84
2022/05/05 02:35:11;;;;;;;18.98;8.85;;;;;;;8.48;72.18;101926.56;5034511;28;20045;-84
2022/05/05 02:40:20;;;;;;;16.70;9.25;;;;;;;8.46;72.53;101930.97;5037023;28;20057;-84
2022/05/05 02:42:46;;;;;;;15.10;8.70;;;;;;;8.44;71.90;101928.31;5034553;28;20370;-84
2022/05/05 02:45:11;;;;;;;13.90;9.27;;;;;;;8.44;72.20;101924.78;5034334;28;20069;-83
2022/05/05 02:47:36;;;;;;;14.63;8.98;;;;;;;8.48;71.69;101929.19;5024616;28;20094;-84
2022/05/05 02:50:02;;;;;;;17.85;9.52;;;;;;;8.48;71.98;101924.81;5061795;28;20041;-84
2022/05/05 02:52:28;;;;;;;16.75;9.77;;;;;;;8.44;73.15;101923.03;5020692;28;20033;-84
2022/05/05 02:54:55;;;;;;;16.48;9.50;;;;;;;8.34;72.76;101932.63;5017594;28;20080;-84
2022/05/05 02:57:23;;;;;;;14.00;9.02;;;;;;;8.25;72.69;101924.66;5035168;28;20440;-84
2022/05/05 02:59:55;;;;;;;15.77;8.95;;;;;;;8.23;72.06;101928.16;5038359;28;20076;-84
2022/05/05 03:02:21;;;;;;;13.63;8.52;;;;;;;8.19;70.91;101924.66;5055286;28;20419;-84
2022/05/05 03:04:47;;;;;;;15.35;9.45;;;;;;;8.13;72.60;101920.19;5033933;28;20021;-84
2022/05/05 03:07:13;;;;;;;18.00;9.45;;;;;;;8.10;72.14;101921.94;5034725;28;20037;-84
2022/05/05 03:09:41;;;;;;;17.60;9.07;;;;;;;8.07;71.42;101920.16;5034737;28;20040;-84
2022/05/05 03:12:08;;;;;;;16.23;9.30;;;;;;;8.08;71.68;101923.69;5018431;28;20067;-84
2022/05/05 03:14:33;;;;;;;13.52;8.27;;;;;;;8.07;70.90;101924.56;5034627;28;20065;-84
2022/05/05 03:16:59;;;;;;;11.95;8.13;;;;;;;8.01;70.00;101924.53;5034578;28;20041;-84
2022/05/05 03:19:26;;;;;;;14.85;8.55;;;;;;;7.97;70.24;101921.00;5024411;28;20033;-84
2022/05/05 03:21:52;;;;;;;15.57;9.20;;;;;;;7.94;71.52;101924.50;5038198;28;20537;-83
2022/05/05 03:24:18;;;;;;;14.57;8.75;;;;;;;7.94;71.41;101924.50;5037611;28;20435;-84
2022/05/05 03:26:43;;;;;;;13.95;8.23;;;;;;;7.94;71.70;101932.41;5054416;28;20036;-84
2022/05/05 03:29:08;;;;;;;16.52;8.82;;;;;;;7.95;71.99;101933.28;5053988;28;20017;-83
2022/05/05 03:31:34;;;;;;;14.63;8.57;;;;;;;7.93;72.15;101929.75;5037748;28;20456;-84
2022/05/05 03:33:59;;;;;;;14.30;8.25;;;;;;;7.96;71.75;101932.41;5037114;28;20056;-84
2022/05/05 03:36:25;;;;;;;14.63;7.63;;;;;;;7.93;71.75;101935.03;5070957;28;20117;-84
2022/05/05 03:38:51;;;;;;;17.80;8.48;;;;;;;7.86;72.40;101934.13;5014636;28;20052;-84
2022/05/05 03:41:17;;;;;;;12.85;8.00;;;;;;;7.82;72.37;101931.44;5001378;28;20404;-84
2022/05/05 03:43:42;;;;;;;13.85;9.23;;;;;;;7.82;73.09;101934.97;5017482;28;20041;-84
2022/05/05 03:46:08;;;;;;;19.38;9.27;;;;;;;7.83;73.85;101933.19;5032838;28;20045;-84
2022/05/05 03:48:33;;;;;;;13.95;8.88;;;;;;;7.85;73.78;101936.75;5005286;28;20017;-84
2022/05/05 03:50:59;;;;;;;13.70;8.40;;;;;;;7.88;73.17;101942.03;5033826;28;20086;-84
2022/05/05 03:53:24;;;;;;;15.95;8.88;;;;;;;7.90;73.80;101941.16;5006919;28;20075;-84
2022/05/05 03:55:50;;;;;;;15.63;8.63;;;;;;;7.95;73.59;101939.44;4997527;28;20103;-84
2022/05/05 03:58:15;;;;;;;13.50;8.98;;;;;;;8.01;73.49;101937.72;4997856;28;20042;-84
2022/05/05 04:00:41;;;;;;;13.88;8.45;;;;;;;8.03;73.06;101942.13;5031496;28;20064;-84
2022/05/05 04:05:51;;;;;;;12.75;8.77;;;;;;;8.05;73.13;101955.34;5026282;28;20388;-84
2022/05/05 04:08:17;;;;;;;13.95;8.80;;;;;;;8.07;73.48;101956.22;5017559;28;20101;-84
2022/05/05 04:10:42;;;;;;;12.82;8.98;;;;;;;8.10;73.53;101958.88;5035962;28;20086;-84
2022/05/05 04:13:08;;;;;;;16.27;8.77;;;;;;;8.13;73.60;101969.44;5016775;28;20033;-84
2022/05/05 04:15:33;;;;;;;18.60;9.07;;;;;;;8.15;73.07;101965.06;5016953;28;20029;-84
2022/05/05 04:18:00;;;;;;;14.30;9.48;;;;;;;8.16;74.05;101951.03;5016574;28;20048;-84
2022/05/05 04:20:25;;;;;;;13.38;8.75;;;;;;;8.22;72.95;101961.59;5002032;28;20036;-84
2022/05/05 04:22:51;;;;;;;15.18;8.93;;;;;;;8.23;74.27;101971.25;5015555;28;20025;-85
2022/05/05 04:25:17;;;;;;;14.10;8.73;;;;;;;8.26;73.72;101967.75;5029250;28;20038;-84
2022/05/05 04:27:45;;;;;;;14.70;9.25;;;;;;;8.27;73.85;101970.41;4996596;28;20064;-84
2022/05/05 04:30:13;;;;;;;15.40;8.50;;;;;;;8.28;73.11;101966.00;5015632;28;20124;-84
2022/05/05 04:32:39;;;;;;;14.60;9.00;;;;;;;8.29;73.42;101973.94;5023185;28;20124;-85
2022/05/05 04:35:05;;;;;;;13.02;8.00;;;;;;;8.30;74.32;101978.34;5010091;28;20100;-85
2022/05/05 04:37:30;;;;;;;15.48;9.27;;;;;;;8.27;74.31;101978.34;5015415;28;20029;-85
2022/05/05 04:39:56;;;;;;;14.73;8.73;;;;;;;8.28;75.02;101972.16;5030372;28;20195;-84
2022/05/05 04:42:21;;;;;;;14.73;8.90;;;;;;;8.30;75.04;101978.34;5035345;28;20028;-85
2022/05/05 04:44:47;;;;;;;15.65;8.68;;;;;;;8.30;74.26;101986.25;5032533;28;20520;-84
2022/05/05 04:47:12;;;;;;;13.73;8.07;;;;;;;8.30;74.90;101980.97;5019813;28;20389;-84
2022/05/05 04:49:38;;;;;;;16.48;9.32;;;;;;;8.33;74.00;101978.38;5026757;28;20044;-84
2022/05/05 04:52:04;;;;;;;12.30;8.73;;;;;;;8.35;73.92;101983.66;4988992;28;20128;-84
2022/05/05 04:54:29;;;;;;;14.50;9.27;;;;;;;8.36;73.56;101982.78;5018722;28;20237;-85
2022/05/05 04:56:55;;;;;;;15.60;9.55;;;;;;;8.41;73.93;101989.03;5049514;28;20035;-84
2022/05/05 04:59:20;;;;;;;17.05;9.00;;;;;;;8.45;73.92;101982.84;5002770;28;20032;-84
2022/05/05 05:01:46;;;;;;;16.90;9.40;;;;;;;8.47;74.45;101975.84;5032946;28;20039;-85
2022/05/05 05:04:11;;;;;;;18.42;10.20;;;;;;;8.54;73.52;101987.31;5035222;28;20067;-85
2022/05/05 05:06:37;;;;;;;16.10;9.40;;;;;;;8.59;72.53;101991.72;5033566;28;20036;-85
2022/05/05 05:09:02;;;;;;;16.40;10.02;;;;;;;8.64;73.78;101990.88;5052287;28;20455;-84
2022/05/05 05:11:28;;;;;;;17.40;9.65;;;;;;;8.69;74.33;101997.94;5035920;28;20067;-85
2022/05/05 05:13:53;;;;;;;18.05;10.93;;;;;;;8.77;73.63;101997.97;5035826;28;20052;-84
2022/05/05 05:16:19;;;;;;;16.52;9.57;;;;;;;8.83;74.35;102000.66;5035880;28;20480;-85
2022/05/05 05:18:44;;;;;;;18.88;10.70;;;;;;;8.89;74.07;101994.50;5034005;28;20043;-85
2022/05/05 05:21:10;;;;;;;16.35;10.25;;;;;;;8.95;74.25;102003.34;5051225;28;20029;-85
2022/05/05 05:23:35;;;;;;;24.88;9.93;;;;;;;9.01;73.09;102002.47;5019937;28;20043;-84
2022/05/05 05:26:01;;;;;;;20.25;11.50;;;;;;;9.06;74.84;102006.00;5019826;28;20055;-85
2022/05/05 05:28:27;;;;;;;16.63;10.27;;;;;;;9.13;74.38;102007.78;5036257;28;20045;-84
2022/05/05 05:30:52;;;;;;;20.20;10.90;;;;;;;9.22;73.80;102010.47;5052992;28;20334;-85
2022/05/05 05:33:18;;;;;;;20.33;11.65;;;;;;;9.29;73.94;102013.09;5036378;28;20041;-85
2022/05/05 05:35:47;;;;;;;19.65;11.00;;;;;;;9.39;75.06;102020.19;5036066;28;20039;-85
2022/05/05 05:38:13;;;;;;;20.40;11.00;;;;;;;9.46;73.84;102020.19;5035845;28;20033;-85
2022/05/05 05:40:40;;;;;;;19.20;10.82;;;;;;;9.56;73.69;102025.50;5016618;28;20034;-85
2022/05/05 05:43:06;;;;;;;20.83;11.25;;;;;;;9.67;73.24;102023.75;5016430;28;20045;-85
2022/05/05 05:45:31;;;;;;;21.20;11.52;;;;;;;9.82;73.00;102030.81;5000032;28;20063;-85
2022/05/05 05:47:57;;;;;;;25.35;12.20;;;;;;;9.96;72.96;102021.09;5020131;28;20523;-85
2022/05/05 05:50:22;;;;;;;26.13;12.05;;;;;;;10.12;72.12;102017.56;5000047;28;20055;-85
2022/05/05 05:52:48;;;;;;;20.77;12.45;;;;;;;10.29;71.88;102024.66;5021336;28;20420;-85
2022/05/05 05:55:15;;;;;;;21.70;11.65;;;;;;;10.46;71.76;102012.25;5035986;28;20509;-86
2022/05/05 05:57:40;;;;;;;21.05;11.38;;;;;;;10.64;71.20;102019.25;5035914;28;20043;-85
2022/05/05 06:00:07;;;;;;;29.55;14.25;;;;;;;10.81;69.84;102027.16;5035843;28;20037;-86
2022/05/05 06:05:23;;;;;;;25.42;14.07;;;;;;;11.13;70.21;102016.41;5018567;28;20114;-85
2022/05/05 06:07:48;;;;;;;23.80;13.82;;;;;;;11.29;68.61;102022.47;5000324;28;20037;-86
2022/05/05 06:10:17;;;;;;;31.52;14.90;;;;;;;11.44;66.27;102025.94;4999448;28;20041;-86
2022/05/05 06:12:43;;;;;;;25.23;14.23;;;;;;;11.62;67.78;102024.03;5015897;28;20037;-86
2022/05/05 06:15:09;;;;;;;30.50;14.25;;;;;;;11.76;65.71;102023.91;4999268;28;20119;-85
2022/05/05 06:17:35;;;;;;;24.63;15.02;;;;;;;11.91;65.65;102016.75;5033687;28;20068;-86
2022/05/05 06:20:00;;;;;;;25.63;12.63;;;;;;;12.00;63.44;102011.38;5023828;28;20048;-86
2022/05/05 06:22:26;;;;;;;32.67;15.82;;;;;;;12.13;64.60;102020.97;5032043;28;20141;-86
2022/05/05 06:24:51;;;;;;;35.38;16.73;;;;;;;12.24;63.48;102021.78;5032146;28;20236;-86
2022/05/05 06:27:17;;;;;;;26.77;14.88;;;;;;;12.31;64.29;102019.91;5015504;28;20044;-86
2022/05/05 06:29:42;;;;;;;33.17;16.73;;;;;;;12.40;63.27;102024.25;5015303;28;20417;-86
2022/05/05 06:32:08;;;;;;;28.55;17.65;;;;;;;12.45;62.34;102023.31;4999017;28;20046;-86
2022/05/05 06:34:33;;;;;;;30.95;17.17;;;;;;;12.47;62.85;102029.50;5032921;28;20378;-86
2022/05/05 06:36:59;;;;;;;31.67;16.40;;;;;;;12.60;63.46;102027.56;5032961;28;20469;-86
2022/05/05 06:39:24;;;;;;;35.20;17.42;;;;;;;12.69;63.09;102034.56;5017843;28;20471;-86
2022/05/05 06:41:50;;;;;;;29.77;16.85;;;;;;;12.74;60.42;102032.75;5018281;28;20060;-86
2022/05/05 06:44:15;;;;;;;29.25;15.95;;;;;;;12.77;61.01;102031.81;5034759;28;20041;-86
2022/05/05 06:46:41;;;;;;;34.05;15.80;;;;;;;12.80;61.03;102037.97;5038621;28;20329;-83
2022/05/05 06:49:06;;;;;;;31.92;15.90;;;;;;;12.85;61.36;102038.78;5022193;28;20439;-84
2022/05/05 06:51:33;;;;;;;27.45;16.70;;;;;;;12.87;61.64;102037.00;5022377;28;20056;-84
2022/05/05 06:53:58;;;;;;;31.15;17.15;;;;;;;12.86;60.50;102039.69;5071999;28;20089;-84
2022/05/05 06:56:25;;;;;;;28.92;16.20;;;;;;;12.86;61.37;102045.03;5054925;28;20123;-84
2022/05/05 06:58:50;;;;;;;26.55;15.75;;;;;;;12.86;60.97;102034.38;5038456;28;20067;-84
2022/05/05 07:06:44;;;;;;;31.25;17.65;;;;;;;13.10;60.94;102051.78;5053107;28;20112;-84
2022/05/05 07:12:01;;;;;;;27.38;16.88;;;;;;;13.22;60.59;102069.38;4998687;28;20044;-85
2022/05/05 07:14:27;;;;;;;32.58;18.42;;;;;;;13.28;61.98;102061.34;5001537;28;20037;-84
2022/05/05 07:16:53;;;;;;;33.53;18.17;;;;;;;13.34;61.35;102064.78;5035601;28;20037;-81
2022/05/05 07:19:18;;;;;;;33.95;18.25;;;;;;;13.40;59.42;102074.50;5013699;28;20025;-83
2022/05/05 07:21:44;;;;;;;39.13;18.48;;;;;;;13.40;59.39;102071.84;5054970;28;20122;-83
2022/05/05 07:24:10;;;;;;;33.58;18.38;;;;;;;13.43;60.15;102076.22;5021746;28;20078;-83
2022/05/05 07:26:35;;;;;;;35.20;19.48;;;;;;;13.47;60.27;102077.94;5038232;28;20028;-83
2022/05/05 07:29:01;;;;;;;31.48;18.35;;;;;;;13.52;60.60;102079.59;5072841;28;20246;-83
2022/05/05 07:31:26;;;;;;;37.97;19.10;;;;;;;13.59;59.66;102087.53;5021690;28;20059;-83
2022/05/05 07:33:52;;;;;;;31.00;19.50;;;;;;;13.62;59.97;102085.69;5038311;28;20159;-83
2022/05/05 07:36:17;;;;;;;35.92;20.02;;;;;;;13.71;59.24;102090.00;5021618;28;20087;-83
2022/05/05 07:38:43;;;;;;;37.17;19.17;;;;;;;13.71;59.99;102098.00;5054355;28;20425;-83
2022/05/05 07:41:08;;;;;;;37.45;20.35;;;;;;;13.84;59.91;102083.56;5043168;28;20493;-83
2022/05/05 07:43:34;;;;;;;35.45;19.88;;;;;;;13.95;59.89;102089.63;5051999;28;20033;-83
2022/05/05 07:45:59;;;;;;;39.35;20.30;;;;;;;14.13;60.52;102090.22;4985756;28;20040;-83
2022/05/05 07:48:25;;;;;;;41.85;21.85;;;;;;;14.26;59.22;102094.44;5035076;28;20024;-83
2022/05/05 07:50:50;;;;;;;40.78;21.63;;;;;;;14.35;58.99;102090.75;5054590;28;20352;-83
2022/05/05 07:53:16;;;;;;;41.00;21.88;;;;;;;14.40;58.81;102091.53;5034439;28;20044;-83
2022/05/05 07:55:41;;;;;;;39.67;23.23;;;;;;;14.51;59.86;102096.66;5034534;28;20044;-83
2022/05/05 07:58:07;;;;;;;48.85;28.35;;;;;;;14.60;59.58;102096.53;5034305;28;20083;-83
2022/05/05 08:00:32;;;;;;;48.38;29.77;;;;;;;14.57;59.73;102097.47;5009015;28;20109;-83
2022/05/05 08:02:58;;;;;;;46.25;27.15;;;;;;;14.54;59.88;102100.22;5033882;28;20040;-84
2022/05/05 08:05:23;;;;;;;47.45;27.55;;;;;;;14.59;59.30;102100.13;5002711;28;20095;-83
2022/05/05 08:07:51;;;;;;;46.58;28.23;;;;;;;14.56;59.77;102103.72;5052293;28;20032;-84
2022/05/05 08:10:20;;;;;;;45.63;27.23;;;;;;;14.64;60.74;102100.91;5037257;28;20025;-85
2022/05/05 08:12:46;;;;;;;42.35;26.05;;;;;;;14.82;60.67;102113.00;5021104;28;20123;-85
2022/05/05 08:15:13;;;;;;;47.28;26.20;;;;;;;14.98;59.79;102106.44;5053683;28;20115;-84
2022/05/05 08:17:39;;;;;;;41.22;25.48;;;;;;;15.12;59.52;102107.97;5036596;28;20031;-84
2022/05/05 08:20:07;;;;;;;48.47;25.90;;;;;;;15.34;59.55;102114.63;5052762;28;20029;-84
2022/05/05 08:22:33;;;;;;;42.55;25.23;;;;;;;15.52;59.18;102120.47;5052928;28;20040;-84
2022/05/05 08:30:27;;;;;;;43.63;25.00;;;;;;;15.82;57.83;102117.13;5037974;28;20041;-84
2022/05/05 08:32:53;;;;;;;49.65;24.95;;;;;;;15.82;56.60;102116.25;5032937;28;20087;-84
2022/05/05 08:35:18;;;;;;;39.95;23.77;;;;;;;15.69;57.38;102115.63;5033358;28;20420;-85
2022/05/05 08:37:44;;;;;;;41.45;24.92;;;;;;;15.64;57.01;102129.06;5050069;28;20592;-84
2022/05/05 08:40:12;;;;;;;48.75;29.10;;;;;;;15.58;57.44;102134.56;5034157;28;20053;-85
2022/05/05 08:42:38;;;;;;;54.85;32.70;;;;;;;15.61;56.72;102133.63;5030331;28;20508;-82
2022/05/05 08:45:04;;;;;;;53.45;33.78;;;;;;;15.57;56.48;102134.59;5013455;28;20151;-84
2022/05/05 08:47:32;;;;;;;58.15;32.83;;;;;;;15.39;57.25;102139.41;5016558;28;20021;-84
2022/05/05 08:49:59;;;;;;;53.33;33.85;;;;;;;15.47;57.88;102140.13;4997487;28;20041;-85
2022/05/05 08:52:33;;;;;;;53.00;30.50;;;;;;;15.53;57.58;102138.22;5014102;28;20083;-84
2022/05/05 08:54:59;;;;;;;53.65;31.45;;;;;;;15.68;58.10;102135.25;4998955;28;20041;-84
2022/05/05 08:57:25;;;;;;;54.70;32.38;;;;;;;15.67;57.39;102141.47;4985192;28;20129;-83
2022/05/05 08:59:50;;;;;;;55.67;31.08;;;;;;;15.79;57.62;102138.56;5001123;28;20196;-84
2022/05/05 09:02:16;;;;;;;50.13;32.08;;;;;;;15.92;56.96;102139.16;5000861;28;20040;-80
2022/05/05 09:04:44;;;;;;;54.63;31.85;;;;;;;16.07;56.84;102143.25;5017627;28;20537;-83
2022/05/05 09:07:10;;;;;;;51.28;31.80;;;;;;;16.30;56.69;102148.06;5001298;28;20084;-85
2022/05/05 09:09:36;;;;;;;52.97;31.77;;;;;;;16.46;56.05;102141.38;5001516;28;20115;-85
2022/05/05 09:12:18;;;;;;;52.28;33.33;;;;;;;16.49;55.49;102143.09;5017913;28;20025;-86
2022/05/05 09:14:44;;;;;;;52.45;32.47;;;;;;;16.64;55.20;102141.81;5017456;28;20099;-82
2022/05/05 09:17:13;;;;;;;51.70;31.60;;;;;;;16.83;54.75;102144.94;5017370;28;20034;-81
2022/05/05 09:19:43;;;;;;;49.45;30.65;;;;;;;17.01;54.17;102140.84;5043718;28;20110;-85
2022/05/05 09:22:09;;;;;;;50.28;30.45;;;;;;;17.17;53.59;102147.53;5037446;28;20055;-85
2022/05/05 09:24:36;;;;;;;44.55;28.92;;;;;;;17.32;53.42;102136.38;5055114;28;20037;-83
2022/05/05 09:27:18;;;;;;;49.55;30.35;;;;;;;17.41;53.93;102141.47;5020737;28;20438;-86
2022/05/05 09:29:56;;;;;;;43.60;28.42;;;;;;;17.56;53.41;102149.97;5054359;28;20107;-86
2022/05/05 09:32:27;;;;;;;52.85;31.35;;;;;;;17.59;52.96;102142.72;5053131;28;20046;-85
2022/05/05 09:34:59;;;;;;;;;;;;;;;17.70;53.62;102147.72;5054018;28;20086;-86
2022/05/05 09:37:25;;;;;;;45.08;27.38;;;;;;;17.73;52.15;102150.34;5020041;28;20297;-88
2022/05/05 09:39:58;;;;;;;45.97;30.17;;;;;;;17.77;51.91;102145.75;5014514;28;20040;-88
2022/05/05 09:42:37;;;;;;;54.15;30.35;;;;;;;17.83;52.51;102151.84;5036586;28;20033;-81
2022/05/05 09:45:16;;;;;;;47.03;29.88;;;;;;;17.85;51.26;102157.13;5036405;28;20037;-83
2022/05/05 09:47:53;;;;;;;45.17;30.08;;;;;;;17.84;51.93;102153.59;5054618;28;20044;-82
2022/05/05 09:50:23;;;;;;;52.13;31.95;;;;;;;17.92;51.12;102152.47;5036473;28;20056;-80
2022/05/05 09:58:23;;;;;;;50.22;31.15;;;;;;;17.93;50.53;102155.09;5054597;28;20075;-84
2022/05/05 10:01:00;;;;;;;51.50;30.67;;;;;;;17.88;50.02;102156.16;5053183;28;20074;-84
2022/05/05 10:06:17;;;;;;;44.85;29.98;;;;;;;17.79;50.04;102162.66;5057126;28;20108;-84
2022/05/05 10:08:48;;;;;;;43.22;28.95;;;;;;;17.82;50.84;102154.56;5039904;28;20029;-84
2022/05/05 10:11:16;;;;;;;;;;;;;;;17.98;51.40;102163.88;5020031;28;20044;-84
2022/05/05 10:13:45;;;;;;;41.63;27.77;;;;;;;18.19;50.20;102156.94;5036431;28;19988;-85
2022/05/05 10:16:14;;;;;;;46.13;28.88;;;;;;;18.48;50.60;102157.78;5036183;28;20100;-83
2022/05/05 10:18:41;;;;;;;49.45;31.00;;;;;;;18.67;49.23;102153.53;5036594;28;20396;-84
2022/05/05 10:21:08;;;;;;;43.10;28.45;;;;;;;18.84;48.51;102155.66;5073953;28;20055;-85
2022/05/05 10:24:00;;;;;;;52.95;30.02;;;;;;;19.07;49.28;102157.50;5040028;28;20078;-85
2022/05/05 10:26:26;;;;;;;48.80;30.88;;;;;;;19.32;47.71;102153.91;5055840;28;20028;-85
2022/05/05 10:28:52;;;;;;;43.13;28.05;;;;;;;19.51;48.13;102151.38;5039288;28;20473;-85
2022/05/05 10:31:30;;;;;;;46.13;29.63;;;;;;;19.51;46.79;102152.28;5056201;28;20127;-84
2022/05/05 10:34:06;;;;;;;49.78;31.00;;;;;;;19.41;46.17;102148.19;5061803;28;20111;-86
2022/05/05 10:36:34;;;;;;;47.88;29.83;;;;;;;19.28;46.65;102144.22;5039960;28;20059;-85
2022/05/05 10:39:16;;;;;;;50.47;30.77;;;;;;;19.19;46.94;102142.75;5034151;28;20061;-87
2022/05/05 10:41:42;;;;;;;41.97;28.27;;;;;;;19.26;46.86;102154.13;5036036;28;20095;-87
2022/05/05 10:44:23;;;;;;;49.47;28.77;;;;;;;19.23;46.42;102157.81;5034791;28;20041;-86
2022/05/05 10:47:07;;;;;;;43.90;28.42;;;;;;;19.21;46.45;102156.97;5023306;28;20137;-86
2022/05/05 10:49:42;;;;;;;41.05;26.52;;;;;;;19.33;47.70;102150.28;5010352;28;20444;-87
2022/05/05 10:52:13;;;;;;;35.70;26.25;;;;;;;19.47;45.79;102160.50;5035307;28;20655;-87
2022/05/05 10:54:40;;;;;;;41.60;25.85;;;;;;;19.62;46.88;102146.47;5017934;28;20029;-85
2022/05/05 10:57:24;;;;;;;34.17;24.05;;;;;;;19.66;46.08;102158.00;5015871;28;20135;-85
2022/05/05 11:00:07;;;;;;;36.63;23.98;;;;;;;19.86;46.01;102155.44;4999008;28;20120;-87
2022/05/05 11:02:33;;;;;;;36.53;24.85;;;;;;;19.95;45.86;102157.75;5014172;28;20119;-85
2022/05/05 11:05:28;;;;;;;39.00;24.83;;;;;;;20.16;46.04;102157.81;5028140;28;20056;-86
2022/05/05 11:08:05;;;;;;;38.40;23.25;;;;;;;20.36;44.93;102156.97;5015558;28;20032;-86
2022/05/05 11:13:46;;;;;;;25.25;17.02;;;;;;;20.47;42.47;102153.81;5016873;28;20099;-86
2022/05/05 11:22:24;;;;;;;24.58;16.73;;;;;;;20.48;41.52;102152.91;5051158;28;20064;-86
2022/05/05 11:24:51;;;;;;;26.85;17.83;;;;;;;20.19;41.93;102163.94;5017937;28;20543;-86
2022/05/05 11:27:20;;;;;;;30.25;18.02;;;;;;;20.37;43.19;102156.03;5018181;28;20534;-86
2022/05/05 11:29:50;;;;;;;27.48;18.83;;;;;;;20.25;41.64;102154.75;5042574;28;20058;-87
2022/05/05 11:32:17;;;;;;;28.95;18.92;;;;;;;20.36;42.50;102156.97;5014541;28;20033;-87
2022/05/05 11:34:45;;;;;;;30.65;19.98;;;;;;;20.36;41.75;102159.66;5001059;28;20491;-86
2022/05/05 11:37:11;;;;;;;29.55;18.90;;;;;;;20.33;42.50;102152.59;5034377;28;20045;-87
2022/05/05 11:39:37;;;;;;;27.70;17.75;;;;;;;20.46;42.49;102150.25;5033790;28;20041;-86
2022/05/05 11:42:06;;;;;;;27.25;18.10;;;;;;;20.58;42.13;102149.78;5001604;28;20377;-88
2022/05/05 11:44:44;;;;;;;26.85;17.15;;;;;;;20.89;42.12;102147.56;5033948;28;20059;-87
2022/05/05 11:47:17;;;;;;;29.85;18.02;;;;;;;21.35;42.39;102151.72;5026179;28;20041;-88
2022/05/05 11:49:47;;;;;;;28.05;18.20;;;;;;;21.81;41.35;102151.38;5012182;28;20036;-88
2022/05/05 11:52:21;;;;;;;24.52;18.45;;;;;;;22.00;41.01;102148.69;5015588;28;20037;-87
2022/05/05 11:54:49;;;;;;;30.52;18.70;;;;;;;22.15;39.84;102147.06;4997974;28;20480;-88
2022/05/05 11:57:33;;;;;;;33.33;21.13;;;;;;;21.82;38.98;102145.06;5014221;28;20386;-87
2022/05/05 12:02:44;;;;;;;27.80;19.75;;;;;;;21.91;40.16;102141.94;5003063;28;20049;-88
2022/05/05 12:05:09;;;;;;;30.73;20.70;;;;;;;21.97;39.91;102147.00;5022462;28;20078;-88
2022/05/05 12:07:36;;;;;;;31.15;20.92;;;;;;;22.08;39.41;102141.97;5017219;28;20045;-87